sensor_id;sensor_type;location;lat;lon;timestamp;P1;durP1;ratioP1;P2;durP2;ratioP2
71164;SDS011;58859;55.132;-1.586;2023-05-07T00:00:22;22.02;;;5.05;;
71164;SDS011;58859;55.132;-1.586;2023-05-07T00:02:47;29.83;;;6.20;;
71164;SDS011;58859;55.132;-1.586;2023-05-07T00:05:13;18.33;;;4.93;;
71164;SDS011;58859;55.132;-1.586;2023-05-07T00:07:39;17.05;;;5.20;;
71164;SDS011;58859;55.132;-1.586;2023-05-07T00:10:05;19.47;;;6.17;;
71164;SDS011;58859;55.132;-1.586;2023-05-07T00:12:31;21.27;;;5.68;;
71164;SDS011;58859;55.132;-1.586;2023-05-07T00:14:58;15.82;;;5.97;;
71164;SDS011;58859;55.132;-1.586;2023-05-07T00:17:25;16.63;;;5.78;;
71164;SDS011;58859;55.132;-1.586;2023-05-07T00:19:50;20.30;;;5.50;;
71164;SDS011;58859;55.132;-1.586;2023-05-07T00:22:16;20.27;;;6.33;;
71164;SDS011;58859;55.132;-1.586;2023-05-07T00:24:41;22.00;;;5.45;;
71164;SDS011;58859;55.132;-1.586;2023-05-07T00:27:07;14.25;;;5.93;;
71164;SDS011;58859;55.132;-1.586;2023-05-07T00:29:32;17.87;;;5.67;;
71164;SDS011;58859;55.132;-1.586;2023-05-07T00:31:58;18.83;;;6.25;;
71164;SDS011;58859;55.132;-1.586;2023-05-07T00:34:23;18.48;;;6.53;;
71164;SDS011;58859;55.132;-1.586;2023-05-07T00:36:49;16.93;;;6.30;;
71164;SDS011;58859;55.132;-1.586;2023-05-07T00:39:14;24.30;;;6.43;;
71164;SDS011;58859;55.132;-1.586;2023-05-07T00:41:40;18.53;;;6.27;;
71164;SDS011;58859;55.132;-1.586;2023-05-07T00:44:05;29.38;;;7.70;;
71164;SDS011;58859;55.132;-1.586;2023-05-07T00:46:31;22.60;;;6.35;;
71164;SDS011;58859;55.132;-1.586;2023-05-07T00:48:57;24.05;;;6.68;;
71164;SDS011;58859;55.132;-1.586;2023-05-07T00:51:24;25.75;;;7.72;;
71164;SDS011;58859;55.132;-1.586;2023-05-07T00:53:51;18.85;;;7.15;;
71164;SDS011;58859;55.132;-1.586;2023-05-07T00:56:17;31.27;;;7.27;;
71164;SDS011;58859;55.132;-1.586;2023-05-07T00:58:42;28.00;;;8.45;;
71164;SDS011;58859;55.132;-1.586;2023-05-07T01:01:08;25.93;;;9.20;;
71164;SDS011;58859;55.132;-1.586;2023-05-07T01:03:33;35.10;;;8.20;;
71164;SDS011;58859;55.132;-1.586;2023-05-07T01:05:59;41.42;;;10.32;;
71164;SDS011;58859;55.132;-1.586;2023-05-07T01:08:25;27.77;;;9.15;;
71164;SDS011;58859;55.132;-1.586;2023-05-07T01:10:53;24.92;;;8.23;;
71164;SDS011;58859;55.132;-1.586;2023-05-07T01:13:19;42.58;;;10.68;;
71164;SDS011;58859;55.132;-1.586;2023-05-07T01:15:45;38.05;;;11.07;;
71164;SDS011;58859;55.132;-1.586;2023-05-07T01:18:11;30.00;;;9.53;;
71164;SDS011;58859;55.132;-1.586;2023-05-07T01:20:37;34.93;;;10.63;;
71164;SDS011;58859;55.132;-1.586;2023-05-07T01:23:02;23.15;;;8.98;;
71164;SDS011;58859;55.132;-1.586;2023-05-07T01:25:28;25.80;;;10.40;;
71164;SDS011;58859;55.132;-1.586;2023-05-07T01:27:54;30.37;;;11.77;;
71164;SDS011;58859;55.132;-1.586;2023-05-07T01:30:20;32.67;;;10.93;;
71164;SDS011;58859;55.132;-1.586;2023-05-07T01:35:24;27.65;;;10.55;;
71164;SDS011;58859;55.132;-1.586;2023-05-07T01:37:57;31.67;;;12.70;;
71164;SDS011;58859;55.132;-1.586;2023-05-07T01:40:23;20.77;;;10.57;;
71164;SDS011;58859;55.132;-1.586;2023-05-07T01:42:49;28.38;;;11.93;;
71164;SDS011;58859;55.132;-1.586;2023-05-07T01:45:15;29.03;;;12.57;;
71164;SDS011;58859;55.132;-1.586;2023-05-07T01:47:41;33.78;;;12.43;;
71164;SDS011;58859;55.132;-1.586;2023-05-07T01:50:07;25.52;;;10.75;;
71164;SDS011;58859;55.132;-1.586;2023-05-07T01:52:35;26.27;;;11.53;;
71164;SDS011;58859;55.132;-1.586;2023-05-07T01:55:02;26.33;;;11.65;;
71164;SDS011;58859;55.132;-1.586;2023-05-07T01:57:27;28.73;;;10.35;;
71164;SDS011;58859;55.132;-1.586;2023-05-07T01:59:53;29.23;;;11.10;;
71164;SDS011;58859;55.132;-1.586;2023-05-07T02:02:18;39.10;;;11.63;;
71164;SDS011;58859;55.132;-1.586;2023-05-07T02:04:45;30.23;;;10.88;;
71164;SDS011;58859;55.132;-1.586;2023-05-07T02:07:11;38.10;;;12.47;;
71164;SDS011;58859;55.132;-1.586;2023-05-07T02:09:36;28.17;;;11.00;;
71164;SDS011;58859;55.132;-1.586;2023-05-07T02:12:01;30.60;;;11.70;;
71164;SDS011;58859;55.132;-1.586;2023-05-07T02:14:27;32.13;;;11.82;;
71164;SDS011;58859;55.132;-1.586;2023-05-07T02:16:52;23.85;;;10.95;;
71164;SDS011;58859;55.132;-1.586;2023-05-07T02:19:18;32.87;;;11.40;;
71164;SDS011;58859;55.132;-1.586;2023-05-07T02:21:46;34.97;;;11.18;;
71164;SDS011;58859;55.132;-1.586;2023-05-07T02:24:11;32.27;;;11.77;;
71164;SDS011;58859;55.132;-1.586;2023-05-07T02:26:37;30.75;;;12.65;;
71164;SDS011;58859;55.132;-1.586;2023-05-07T02:29:02;33.97;;;12.53;;
71164;SDS011;58859;55.132;-1.586;2023-05-07T02:31:28;35.97;;;14.13;;
71164;SDS011;58859;55.132;-1.586;2023-05-07T02:33:53;30.13;;;12.30;;
71164;SDS011;58859;55.132;-1.586;2023-05-07T02:36:18;41.27;;;14.23;;
71164;SDS011;58859;55.132;-1.586;2023-05-07T02:38:44;38.38;;;13.38;;
71164;SDS011;58859;55.132;-1.586;2023-05-07T02:41:09;36.20;;;13.37;;
71164;SDS011;58859;55.132;-1.586;2023-05-07T02:43:35;37.37;;;12.67;;
71164;SDS011;58859;55.132;-1.586;2023-05-07T02:46:05;38.05;;;13.88;;
71164;SDS011;58859;55.132;-1.586;2023-05-07T02:48:31;36.08;;;15.48;;
71164;SDS011;58859;55.132;-1.586;2023-05-07T02:50:57;37.83;;;13.43;;
71164;SDS011;58859;55.132;-1.586;2023-05-07T02:53:23;41.25;;;13.82;;
71164;SDS011;58859;55.132;-1.586;2023-05-07T02:55:51;41.50;;;14.70;;
71164;SDS011;58859;55.132;-1.586;2023-05-07T02:58:26;37.70;;;13.77;;
71164;SDS011;58859;55.132;-1.586;2023-05-07T03:00:52;46.38;;;15.50;;
71164;SDS011;58859;55.132;-1.586;2023-05-07T03:03:19;40.50;;;14.73;;
71164;SDS011;58859;55.132;-1.586;2023-05-07T03:05:45;41.10;;;14.02;;
71164;SDS011;58859;55.132;-1.586;2023-05-07T03:08:10;38.20;;;13.33;;
71164;SDS011;58859;55.132;-1.586;2023-05-07T03:10:36;43.55;;;15.50;;
71164;SDS011;58859;55.132;-1.586;2023-05-07T03:13:02;40.88;;;14.88;;
71164;SDS011;58859;55.132;-1.586;2023-05-07T03:15:28;34.22;;;13.35;;
71164;SDS011;58859;55.132;-1.586;2023-05-07T03:17:54;36.70;;;14.63;;
71164;SDS011;58859;55.132;-1.586;2023-05-07T03:20:19;39.67;;;13.73;;
71164;SDS011;58859;55.132;-1.586;2023-05-07T03:22:45;33.50;;;12.80;;
71164;SDS011;58859;55.132;-1.586;2023-05-07T03:25:10;30.80;;;12.83;;
71164;SDS011;58859;55.132;-1.586;2023-05-07T03:27:36;31.67;;;13.73;;
71164;SDS011;58859;55.132;-1.586;2023-05-07T03:30:02;40.27;;;15.57;;
71164;SDS011;58859;55.132;-1.586;2023-05-07T03:32:28;35.03;;;14.65;;
71164;SDS011;58859;55.132;-1.586;2023-05-07T03:34:53;36.37;;;15.63;;
71164;SDS011;58859;55.132;-1.586;2023-05-07T03:37:18;42.13;;;17.53;;
71164;SDS011;58859;55.132;-1.586;2023-05-07T03:39:44;32.25;;;12.93;;
71164;SDS011;58859;55.132;-1.586;2023-05-07T03:42:09;32.30;;;12.67;;
71164;SDS011;58859;55.132;-1.586;2023-05-07T03:44:35;31.03;;;13.90;;
71164;SDS011;58859;55.132;-1.586;2023-05-07T03:47:01;32.30;;;13.68;;
71164;SDS011;58859;55.132;-1.586;2023-05-07T03:49:27;32.67;;;14.10;;
71164;SDS011;58859;55.132;-1.586;2023-05-07T03:51:52;31.97;;;15.20;;
71164;SDS011;58859;55.132;-1.586;2023-05-07T03:54:18;39.63;;;15.27;;
71164;SDS011;58859;55.132;-1.586;2023-05-07T03:56:43;37.23;;;17.17;;
71164;SDS011;58859;55.132;-1.586;2023-05-07T03:59:08;42.75;;;16.42;;
71164;SDS011;58859;55.132;-1.586;2023-05-07T04:01:34;35.67;;;15.43;;
71164;SDS011;58859;55.132;-1.586;2023-05-07T04:03:59;40.20;;;14.37;;
71164;SDS011;58859;55.132;-1.586;2023-05-07T04:06:25;31.63;;;14.97;;
71164;SDS011;58859;55.132;-1.586;2023-05-07T04:08:50;39.13;;;14.17;;
71164;SDS011;58859;55.132;-1.586;2023-05-07T04:11:15;30.30;;;14.50;;
71164;SDS011;58859;55.132;-1.586;2023-05-07T04:13:41;27.90;;;13.00;;
71164;SDS011;58859;55.132;-1.586;2023-05-07T04:16:06;33.40;;;14.52;;
71164;SDS011;58859;55.132;-1.586;2023-05-07T04:18:31;36.60;;;15.63;;
71164;SDS011;58859;55.132;-1.586;2023-05-07T04:20:57;35.90;;;14.63;;
71164;SDS011;58859;55.132;-1.586;2023-05-07T04:23:22;36.90;;;14.10;;
71164;SDS011;58859;55.132;-1.586;2023-05-07T04:25:48;36.87;;;14.80;;
71164;SDS011;58859;55.132;-1.586;2023-05-07T04:28:13;39.13;;;13.75;;
71164;SDS011;58859;55.132;-1.586;2023-05-07T04:30:38;38.97;;;12.90;;
71164;SDS011;58859;55.132;-1.586;2023-05-07T04:33:04;32.27;;;10.77;;
71164;SDS011;58859;55.132;-1.586;2023-05-07T04:35:31;38.42;;;13.15;;
71164;SDS011;58859;55.132;-1.586;2023-05-07T04:37:57;37.93;;;15.13;;
71164;SDS011;58859;55.132;-1.586;2023-05-07T04:40:22;39.05;;;13.52;;
71164;SDS011;58859;55.132;-1.586;2023-05-07T04:42:48;36.17;;;14.70;;
71164;SDS011;58859;55.132;-1.586;2023-05-07T04:45:13;44.80;;;15.07;;
71164;SDS011;58859;55.132;-1.586;2023-05-07T04:47:39;49.72;;;15.98;;
71164;SDS011;58859;55.132;-1.586;2023-05-07T04:50:06;43.73;;;15.00;;
71164;SDS011;58859;55.132;-1.586;2023-05-07T04:52:33;51.10;;;13.70;;
71164;SDS011;58859;55.132;-1.586;2023-05-07T04:54:59;45.88;;;14.98;;
71164;SDS011;58859;55.132;-1.586;2023-05-07T04:57:26;45.30;;;14.83;;
71164;SDS011;58859;55.132;-1.586;2023-05-07T04:59:52;50.78;;;14.77;;
71164;SDS011;58859;55.132;-1.586;2023-05-07T05:02:18;46.90;;;14.73;;
71164;SDS011;58859;55.132;-1.586;2023-05-07T05:04:43;50.20;;;15.23;;
71164;SDS011;58859;55.132;-1.586;2023-05-07T05:07:08;55.93;;;14.47;;
71164;SDS011;58859;55.132;-1.586;2023-05-07T05:09:34;43.78;;;15.32;;
71164;SDS011;58859;55.132;-1.586;2023-05-07T05:11:59;56.97;;;15.60;;
71164;SDS011;58859;55.132;-1.586;2023-05-07T05:14:25;55.17;;;13.83;;
71164;SDS011;58859;55.132;-1.586;2023-05-07T05:16:50;53.47;;;15.00;;
71164;SDS011;58859;55.132;-1.586;2023-05-07T05:19:16;55.05;;;13.48;;
71164;SDS011;58859;55.132;-1.586;2023-05-07T05:21:41;44.83;;;14.10;;
71164;SDS011;58859;55.132;-1.586;2023-05-07T05:24:07;52.00;;;13.33;;
71164;SDS011;58859;55.132;-1.586;2023-05-07T05:26:32;50.38;;;13.68;;
71164;SDS011;58859;55.132;-1.586;2023-05-07T05:28:58;42.08;;;12.68;;
71164;SDS011;58859;55.132;-1.586;2023-05-07T05:31:23;45.00;;;12.90;;
71164;SDS011;58859;55.132;-1.586;2023-05-07T05:33:49;52.10;;;14.13;;
71164;SDS011;58859;55.132;-1.586;2023-05-07T05:36:14;50.28;;;13.13;;
71164;SDS011;58859;55.132;-1.586;2023-05-07T05:38:40;43.45;;;11.98;;
71164;SDS011;58859;55.132;-1.586;2023-05-07T05:41:05;37.53;;;11.43;;
71164;SDS011;58859;55.132;-1.586;2023-05-07T05:43:30;38.60;;;11.90;;
71164;SDS011;58859;55.132;-1.586;2023-05-07T05:45:56;45.75;;;11.73;;
71164;SDS011;58859;55.132;-1.586;2023-05-07T05:48:22;35.83;;;10.65;;
71164;SDS011;58859;55.132;-1.586;2023-05-07T05:50:48;43.63;;;11.35;;
71164;SDS011;58859;55.132;-1.586;2023-05-07T05:53:13;39.00;;;9.93;;
71164;SDS011;58859;55.132;-1.586;2023-05-07T05:55:39;45.10;;;10.60;;
71164;SDS011;58859;55.132;-1.586;2023-05-07T05:58:04;37.37;;;10.07;;
71164;SDS011;58859;55.132;-1.586;2023-05-07T06:00:30;43.22;;;10.18;;
71164;SDS011;58859;55.132;-1.586;2023-05-07T06:02:55;42.80;;;11.83;;
71164;SDS011;58859;55.132;-1.586;2023-05-07T06:05:21;47.80;;;12.77;;
71164;SDS011;58859;55.132;-1.586;2023-05-07T06:07:46;43.07;;;11.37;;
71164;SDS011;58859;55.132;-1.586;2023-05-07T06:10:11;35.20;;;10.50;;
71164;SDS011;58859;55.132;-1.586;2023-05-07T06:12:37;38.67;;;10.43;;
71164;SDS011;58859;55.132;-1.586;2023-05-07T06:15:03;30.60;;;9.80;;
71164;SDS011;58859;55.132;-1.586;2023-05-07T06:17:28;33.08;;;9.82;;
71164;SDS011;58859;55.132;-1.586;2023-05-07T06:19:54;25.30;;;8.40;;
71164;SDS011;58859;55.132;-1.586;2023-05-07T06:22:20;35.92;;;9.02;;
71164;SDS011;58859;55.132;-1.586;2023-05-07T06:24:45;33.93;;;9.83;;
71164;SDS011;58859;55.132;-1.586;2023-05-07T06:27:11;25.27;;;7.37;;
71164;SDS011;58859;55.132;-1.586;2023-05-07T06:29:36;25.48;;;6.80;;
71164;SDS011;58859;55.132;-1.586;2023-05-07T06:32:11;29.77;;;7.77;;
71164;SDS011;58859;55.132;-1.586;2023-05-07T06:34:38;28.42;;;7.30;;
71164;SDS011;58859;55.132;-1.586;2023-05-07T06:37:04;21.23;;;6.93;;
71164;SDS011;58859;55.132;-1.586;2023-05-07T06:39:30;22.90;;;7.33;;
71164;SDS011;58859;55.132;-1.586;2023-05-07T06:41:57;30.80;;;7.25;;
71164;SDS011;58859;55.132;-1.586;2023-05-07T06:44:23;28.73;;;7.45;;
71164;SDS011;58859;55.132;-1.586;2023-05-07T06:46:48;18.77;;;6.57;;
71164;SDS011;58859;55.132;-1.586;2023-05-07T06:49:14;18.13;;;6.80;;
71164;SDS011;58859;55.132;-1.586;2023-05-07T06:51:40;19.70;;;7.20;;
71164;SDS011;58859;55.132;-1.586;2023-05-07T06:54:05;15.13;;;5.78;;
71164;SDS011;58859;55.132;-1.586;2023-05-07T06:56:31;14.93;;;5.97;;
71164;SDS011;58859;55.132;-1.586;2023-05-07T06:58:57;9.73;;;4.57;;
71164;SDS011;58859;55.132;-1.586;2023-05-07T07:01:23;7.63;;;3.90;;
71164;SDS011;58859;55.132;-1.586;2023-05-07T07:03:48;12.43;;;5.83;;
71164;SDS011;58859;55.132;-1.586;2023-05-07T07:06:14;10.05;;;4.82;;
71164;SDS011;58859;55.132;-1.586;2023-05-07T07:08:39;9.97;;;3.80;;
71164;SDS011;58859;55.132;-1.586;2023-05-07T07:11:05;12.33;;;5.53;;
71164;SDS011;58859;55.132;-1.586;2023-05-07T07:13:31;10.30;;;5.40;;
71164;SDS011;58859;55.132;-1.586;2023-05-07T07:15:56;13.33;;;5.80;;
71164;SDS011;58859;55.132;-1.586;2023-05-07T07:18:22;11.00;;;5.45;;
71164;SDS011;58859;55.132;-1.586;2023-05-07T07:20:47;9.83;;;4.73;;
71164;SDS011;58859;55.132;-1.586;2023-05-07T07:23:13;10.20;;;5.00;;
71164;SDS011;58859;55.132;-1.586;2023-05-07T07:25:38;12.38;;;5.57;;
71164;SDS011;58859;55.132;-1.586;2023-05-07T07:28:04;8.90;;;3.83;;
71164;SDS011;58859;55.132;-1.586;2023-05-07T07:30:30;8.57;;;4.30;;
71164;SDS011;58859;55.132;-1.586;2023-05-07T07:32:55;3.43;;;2.60;;
71164;SDS011;58859;55.132;-1.586;2023-05-07T07:35:27;4.53;;;3.20;;
71164;SDS011;58859;55.132;-1.586;2023-05-07T07:37:52;4.57;;;3.40;;
71164;SDS011;58859;55.132;-1.586;2023-05-07T07:40:17;4.17;;;3.17;;
71164;SDS011;58859;55.132;-1.586;2023-05-07T07:42:43;3.93;;;3.07;;
71164;SDS011;58859;55.132;-1.586;2023-05-07T07:45:08;6.70;;;3.50;;
71164;SDS011;58859;55.132;-1.586;2023-05-07T07:47:34;5.05;;;3.30;;
71164;SDS011;58859;55.132;-1.586;2023-05-07T07:50:00;5.30;;;3.27;;
71164;SDS011;58859;55.132;-1.586;2023-05-07T07:52:25;6.28;;;3.83;;
71164;SDS011;58859;55.132;-1.586;2023-05-07T07:54:50;5.88;;;4.35;;
71164;SDS011;58859;55.132;-1.586;2023-05-07T07:57:16;6.37;;;4.30;;
71164;SDS011;58859;55.132;-1.586;2023-05-07T07:59:41;7.37;;;4.60;;
71164;SDS011;58859;55.132;-1.586;2023-05-07T08:02:08;6.32;;;3.83;;
71164;SDS011;58859;55.132;-1.586;2023-05-07T08:04:33;7.60;;;4.57;;
71164;SDS011;58859;55.132;-1.586;2023-05-07T08:07:00;11.23;;;5.63;;
71164;SDS011;58859;55.132;-1.586;2023-05-07T08:09:25;11.60;;;5.40;;
71164;SDS011;58859;55.132;-1.586;2023-05-07T08:11:51;13.17;;;5.40;;
71164;SDS011;58859;55.132;-1.586;2023-05-07T08:14:16;11.55;;;4.85;;
71164;SDS011;58859;55.132;-1.586;2023-05-07T08:16:42;17.90;;;6.23;;
71164;SDS011;58859;55.132;-1.586;2023-05-07T08:19:07;22.88;;;6.07;;
71164;SDS011;58859;55.132;-1.586;2023-05-07T08:21:33;23.67;;;6.77;;
71164;SDS011;58859;55.132;-1.586;2023-05-07T08:23:59;19.35;;;6.53;;
71164;SDS011;58859;55.132;-1.586;2023-05-07T08:26:24;24.75;;;7.03;;
71164;SDS011;58859;55.132;-1.586;2023-05-07T08:28:50;24.57;;;7.87;;
71164;SDS011;58859;55.132;-1.586;2023-05-07T08:31:15;33.60;;;7.73;;
71164;SDS011;58859;55.132;-1.586;2023-05-07T08:33:41;24.93;;;7.13;;
71164;SDS011;58859;55.132;-1.586;2023-05-07T08:36:06;23.88;;;7.60;;
71164;SDS011;58859;55.132;-1.586;2023-05-07T08:38:32;23.73;;;6.07;;
71164;SDS011;58859;55.132;-1.586;2023-05-07T08:40:57;21.40;;;6.77;;
71164;SDS011;58859;55.132;-1.586;2023-05-07T08:43:23;17.20;;;5.70;;
71164;SDS011;58859;55.132;-1.586;2023-05-07T08:45:53;16.08;;;5.85;;
71164;SDS011;58859;55.132;-1.586;2023-05-07T08:48:21;15.98;;;5.53;;
71164;SDS011;58859;55.132;-1.586;2023-05-07T08:50:50;18.83;;;5.60;;
71164;SDS011;58859;55.132;-1.586;2023-05-07T08:53:16;16.50;;;5.60;;
71164;SDS011;58859;55.132;-1.586;2023-05-07T08:55:41;17.88;;;5.90;;
71164;SDS011;58859;55.132;-1.586;2023-05-07T08:58:07;15.40;;;5.10;;
71164;SDS011;58859;55.132;-1.586;2023-05-07T09:00:32;15.25;;;6.57;;
71164;SDS011;58859;55.132;-1.586;2023-05-07T09:02:58;14.57;;;5.65;;
71164;SDS011;58859;55.132;-1.586;2023-05-07T09:05:25;15.50;;;5.65;;
71164;SDS011;58859;55.132;-1.586;2023-05-07T09:07:50;15.20;;;4.93;;
71164;SDS011;58859;55.132;-1.586;2023-05-07T09:10:16;17.53;;;5.87;;
71164;SDS011;58859;55.132;-1.586;2023-05-07T09:12:41;15.80;;;6.10;;
71164;SDS011;58859;55.132;-1.586;2023-05-07T09:15:07;21.77;;;7.22;;
71164;SDS011;58859;55.132;-1.586;2023-05-07T09:17:32;20.60;;;6.60;;
71164;SDS011;58859;55.132;-1.586;2023-05-07T09:20:05;21.15;;;7.38;;
71164;SDS011;58859;55.132;-1.586;2023-05-07T09:22:35;21.87;;;7.93;;
71164;SDS011;58859;55.132;-1.586;2023-05-07T09:25:02;20.45;;;6.70;;
71164;SDS011;58859;55.132;-1.586;2023-05-07T09:27:27;19.52;;;7.28;;
71164;SDS011;58859;55.132;-1.586;2023-05-07T09:29:53;17.30;;;6.83;;
71164;SDS011;58859;55.132;-1.586;2023-05-07T09:32:18;18.03;;;7.13;;
71164;SDS011;58859;55.132;-1.586;2023-05-07T09:34:43;14.70;;;7.13;;
71164;SDS011;58859;55.132;-1.586;2023-05-07T09:37:10;19.80;;;7.53;;
71164;SDS011;58859;55.132;-1.586;2023-05-07T09:39:38;21.60;;;7.53;;
71164;SDS011;58859;55.132;-1.586;2023-05-07T09:42:05;23.52;;;8.02;;
71164;SDS011;58859;55.132;-1.586;2023-05-07T09:44:31;20.02;;;8.32;;
71164;SDS011;58859;55.132;-1.586;2023-05-07T09:46:57;23.10;;;7.90;;
71164;SDS011;58859;55.132;-1.586;2023-05-07T09:49:25;22.83;;;8.37;;
71164;SDS011;58859;55.132;-1.586;2023-05-07T09:51:55;29.40;;;9.25;;
71164;SDS011;58859;55.132;-1.586;2023-05-07T09:54:21;24.55;;;8.57;;
71164;SDS011;58859;55.132;-1.586;2023-05-07T09:56:50;29.95;;;9.73;;
71164;SDS011;58859;55.132;-1.586;2023-05-07T09:59:18;24.15;;;11.57;;
71164;SDS011;58859;55.132;-1.586;2023-05-07T10:01:45;27.40;;;9.75;;
71164;SDS011;58859;55.132;-1.586;2023-05-07T10:04:11;34.03;;;9.70;;
71164;SDS011;58859;55.132;-1.586;2023-05-07T10:06:37;31.05;;;9.80;;
71164;SDS011;58859;55.132;-1.586;2023-05-07T10:09:03;29.80;;;10.90;;
71164;SDS011;58859;55.132;-1.586;2023-05-07T10:11:32;33.88;;;11.07;;
71164;SDS011;58859;55.132;-1.586;2023-05-07T10:14:02;27.13;;;9.07;;
71164;SDS011;58859;55.132;-1.586;2023-05-07T10:16:34;30.75;;;10.65;;
71164;SDS011;58859;55.132;-1.586;2023-05-07T10:19:04;32.95;;;10.32;;
71164;SDS011;58859;55.132;-1.586;2023-05-07T10:21:33;28.25;;;9.68;;
71164;SDS011;58859;55.132;-1.586;2023-05-07T10:26:31;26.67;;;10.00;;
71164;SDS011;58859;55.132;-1.586;2023-05-07T10:29:06;27.38;;;10.02;;
71164;SDS011;58859;55.132;-1.586;2023-05-07T10:34:39;25.77;;;10.15;;
71164;SDS011;58859;55.132;-1.586;2023-05-07T10:37:08;27.48;;;10.05;;
71164;SDS011;58859;55.132;-1.586;2023-05-07T10:39:35;24.15;;;9.85;;
71164;SDS011;58859;55.132;-1.586;2023-05-07T10:42:08;30.75;;;9.02;;
71164;SDS011;58859;55.132;-1.586;2023-05-07T10:44:34;28.15;;;9.43;;
71164;SDS011;58859;55.132;-1.586;2023-05-07T10:47:08;25.35;;;8.82;;
71164;SDS011;58859;55.132;-1.586;2023-05-07T10:49:36;30.50;;;9.75;;
71164;SDS011;58859;55.132;-1.586;2023-05-07T10:52:12;32.13;;;9.82;;
71164;SDS011;58859;55.132;-1.586;2023-05-07T10:54:44;27.35;;;10.23;;
71164;SDS011;58859;55.132;-1.586;2023-05-07T10:59:58;26.73;;;9.82;;
71164;SDS011;58859;55.132;-1.586;2023-05-07T11:02:35;25.27;;;9.63;;
71164;SDS011;58859;55.132;-1.586;2023-05-07T11:05:24;27.42;;;9.48;;
71164;SDS011;58859;55.132;-1.586;2023-05-07T11:08:00;28.85;;;10.00;;
71164;SDS011;58859;55.132;-1.586;2023-05-07T11:10:47;35.58;;;9.85;;
71164;SDS011;58859;55.132;-1.586;2023-05-07T11:13:13;30.40;;;9.63;;
71164;SDS011;58859;55.132;-1.586;2023-05-07T11:15:40;28.95;;;11.10;;
71164;SDS011;58859;55.132;-1.586;2023-05-07T11:18:09;26.52;;;10.60;;
71164;SDS011;58859;55.132;-1.586;2023-05-07T11:21:18;31.00;;;10.63;;
71164;SDS011;58859;55.132;-1.586;2023-05-07T11:28:29;32.00;;;10.77;;
71164;SDS011;58859;55.132;-1.586;2023-05-07T11:30:56;25.00;;;10.40;;
71164;SDS011;58859;55.132;-1.586;2023-05-07T11:33:22;25.70;;;10.63;;
71164;SDS011;58859;55.132;-1.586;2023-05-07T11:35:50;24.33;;;10.88;;
71164;SDS011;58859;55.132;-1.586;2023-05-07T11:38:18;27.35;;;10.68;;
71164;SDS011;58859;55.132;-1.586;2023-05-07T11:40:54;22.65;;;9.68;;
71164;SDS011;58859;55.132;-1.586;2023-05-07T11:43:21;23.70;;;9.87;;
71164;SDS011;58859;55.132;-1.586;2023-05-07T11:45:47;28.50;;;11.77;;
71164;SDS011;58859;55.132;-1.586;2023-05-07T11:48:13;26.08;;;10.90;;
71164;SDS011;58859;55.132;-1.586;2023-05-07T11:50:52;23.80;;;9.93;;
71164;SDS011;58859;55.132;-1.586;2023-05-07T11:53:24;24.98;;;9.82;;
71164;SDS011;58859;55.132;-1.586;2023-05-07T11:55:56;21.70;;;10.18;;
71164;SDS011;58859;55.132;-1.586;2023-05-07T11:58:22;21.98;;;10.38;;
71164;SDS011;58859;55.132;-1.586;2023-05-07T12:00:49;16.70;;;8.57;;
71164;SDS011;58859;55.132;-1.586;2023-05-07T12:03:15;19.07;;;9.23;;
71164;SDS011;58859;55.132;-1.586;2023-05-07T12:05:41;21.23;;;9.20;;
71164;SDS011;58859;55.132;-1.586;2023-05-07T12:08:07;15.40;;;8.60;;
71164;SDS011;58859;55.132;-1.586;2023-05-07T12:10:32;18.13;;;9.43;;
71164;SDS011;58859;55.132;-1.586;2023-05-07T12:12:58;18.43;;;10.10;;
71164;SDS011;58859;55.132;-1.586;2023-05-07T12:15:23;16.93;;;8.83;;
71164;SDS011;58859;55.132;-1.586;2023-05-07T12:17:49;15.77;;;8.70;;
71164;SDS011;58859;55.132;-1.586;2023-05-07T12:20:15;17.37;;;8.07;;
71164;SDS011;58859;55.132;-1.586;2023-05-07T12:22:42;14.70;;;7.47;;
71164;SDS011;58859;55.132;-1.586;2023-05-07T12:25:07;14.05;;;6.85;;
71164;SDS011;58859;55.132;-1.586;2023-05-07T12:27:36;10.90;;;6.07;;
71164;SDS011;58859;55.132;-1.586;2023-05-07T12:30:03;10.82;;;6.20;;
71164;SDS011;58859;55.132;-1.586;2023-05-07T12:32:28;10.57;;;5.70;;
71164;SDS011;58859;55.132;-1.586;2023-05-07T12:34:54;7.23;;;4.43;;
71164;SDS011;58859;55.132;-1.586;2023-05-07T12:37:26;7.47;;;4.43;;
71164;SDS011;58859;55.132;-1.586;2023-05-07T12:40:10;7.53;;;3.85;;
71164;SDS011;58859;55.132;-1.586;2023-05-07T12:42:36;5.20;;;3.53;;
71164;SDS011;58859;55.132;-1.586;2023-05-07T12:45:10;5.88;;;3.92;;
71164;SDS011;58859;55.132;-1.586;2023-05-07T12:47:43;7.32;;;3.15;;
71164;SDS011;58859;55.132;-1.586;2023-05-07T12:50:15;8.90;;;5.07;;
71164;SDS011;58859;55.132;-1.586;2023-05-07T12:52:41;11.00;;;5.03;;
71164;SDS011;58859;55.132;-1.586;2023-05-07T12:55:09;8.82;;;4.50;;
71164;SDS011;58859;55.132;-1.586;2023-05-07T12:57:42;7.22;;;4.22;;
71164;SDS011;58859;55.132;-1.586;2023-05-07T13:00:09;7.90;;;4.72;;
71164;SDS011;58859;55.132;-1.586;2023-05-07T13:02:39;8.40;;;5.30;;
71164;SDS011;58859;55.132;-1.586;2023-05-07T13:05:05;8.90;;;5.32;;
71164;SDS011;58859;55.132;-1.586;2023-05-07T13:07:32;9.95;;;5.78;;
71164;SDS011;58859;55.132;-1.586;2023-05-07T13:09:57;12.17;;;7.17;;
71164;SDS011;58859;55.132;-1.586;2023-05-07T13:12:22;11.70;;;6.47;;
71164;SDS011;58859;55.132;-1.586;2023-05-07T13:14:48;12.77;;;7.33;;
71164;SDS011;58859;55.132;-1.586;2023-05-07T13:17:13;11.05;;;6.30;;
71164;SDS011;58859;55.132;-1.586;2023-05-07T13:19:39;11.63;;;6.17;;
71164;SDS011;58859;55.132;-1.586;2023-05-07T13:22:04;10.03;;;5.17;;
71164;SDS011;58859;55.132;-1.586;2023-05-07T13:24:30;9.98;;;6.10;;
71164;SDS011;58859;55.132;-1.586;2023-05-07T13:26:55;11.13;;;6.67;;
71164;SDS011;58859;55.132;-1.586;2023-05-07T13:29:20;10.33;;;5.77;;
71164;SDS011;58859;55.132;-1.586;2023-05-07T13:31:53;10.90;;;6.72;;
71164;SDS011;58859;55.132;-1.586;2023-05-07T13:34:19;12.30;;;5.90;;
71164;SDS011;58859;55.132;-1.586;2023-05-07T13:36:44;13.80;;;7.13;;
71164;SDS011;58859;55.132;-1.586;2023-05-07T13:39:10;12.57;;;6.23;;
71164;SDS011;58859;55.132;-1.586;2023-05-07T13:41:35;10.87;;;6.00;;
71164;SDS011;58859;55.132;-1.586;2023-05-07T13:44:01;14.47;;;6.80;;
71164;SDS011;58859;55.132;-1.586;2023-05-07T13:46:26;10.63;;;6.63;;
71164;SDS011;58859;55.132;-1.586;2023-05-07T13:48:51;11.25;;;5.65;;
71164;SDS011;58859;55.132;-1.586;2023-05-07T13:51:17;12.13;;;6.30;;
71164;SDS011;58859;55.132;-1.586;2023-05-07T13:53:43;12.77;;;6.30;;
71164;SDS011;58859;55.132;-1.586;2023-05-07T13:56:08;16.00;;;8.60;;
71164;SDS011;58859;55.132;-1.586;2023-05-07T13:58:33;13.43;;;7.77;;
71164;SDS011;58859;55.132;-1.586;2023-05-07T14:01:01;13.20;;;7.38;;
71164;SDS011;58859;55.132;-1.586;2023-05-07T14:03:27;12.20;;;6.17;;
71164;SDS011;58859;55.132;-1.586;2023-05-07T14:05:52;15.03;;;6.67;;
71164;SDS011;58859;55.132;-1.586;2023-05-07T14:08:17;13.17;;;6.07;;
71164;SDS011;58859;55.132;-1.586;2023-05-07T14:10:45;18.35;;;7.82;;
71164;SDS011;58859;55.132;-1.586;2023-05-07T14:13:11;18.33;;;9.10;;
71164;SDS011;58859;55.132;-1.586;2023-05-07T14:15:36;18.63;;;8.88;;
71164;SDS011;58859;55.132;-1.586;2023-05-07T14:18:02;17.20;;;7.93;;
71164;SDS011;58859;55.132;-1.586;2023-05-07T14:20:28;21.85;;;9.13;;
71164;SDS011;58859;55.132;-1.586;2023-05-07T14:22:55;18.17;;;7.93;;
71164;SDS011;58859;55.132;-1.586;2023-05-07T14:25:20;20.13;;;9.50;;
71164;SDS011;58859;55.132;-1.586;2023-05-07T14:27:46;21.50;;;9.27;;
71164;SDS011;58859;55.132;-1.586;2023-05-07T14:30:11;21.57;;;8.77;;